Dunstable, United Kingdom
Current Conditions -  °F | °C
As of 6:20 AM on Sunday 21 Dec 2014 (Local Time) from EGGW Reporting Station
Overcast Overcast  
Wind Chill: 37°   Ceiling: 400
Heat Index: 43°   Visibility: 6mi
Dew Point: 41°   Wind: 10mph
Humidity: 93%   Direction: 210°SSW
Pressure: 30.33"   Gusts: NA
Location:  51.89°N, 0.52°W
Report Text: EGGW 210620Z 21009KT 9999 OVC004 06/05 Q1027
Loading
Personal Weather Stations






























Interactive Weather Map New forecast layout! Learn more

10-Day Weather Forecast

Advertisements
Track Severe Weather on mobile